sensor_id;sensor_type;location;lat;lon;timestamp;temperature;humidity
75994;DHT22;64680;53.800;9.988;2023-08-06T00:01:51;15.40;71.30
75994;DHT22;64680;53.800;9.988;2023-08-06T00:04:16;15.40;74.70
75994;DHT22;64680;53.800;9.988;2023-08-06T00:06:42;15.30;74.60
75994;DHT22;64680;53.800;9.988;2023-08-06T00:09:07;15.30;76.80
75994;DHT22;64680;53.800;9.988;2023-08-06T00:11:33;15.40;75.20
75994;DHT22;64680;53.800;9.988;2023-08-06T00:13:59;15.40;75.40
75994;DHT22;64680;53.800;9.988;2023-08-06T00:16:24;15.30;76.60
75994;DHT22;64680;53.800;9.988;2023-08-06T00:18:50;15.30;78.00
75994;DHT22;64680;53.800;9.988;2023-08-06T00:21:16;15.30;78.60
75994;DHT22;64680;53.800;9.988;2023-08-06T00:23:41;15.30;80.10
75994;DHT22;64680;53.800;9.988;2023-08-06T00:26:07;15.20;78.70
75994;DHT22;64680;53.800;9.988;2023-08-06T00:28:32;15.30;76.50
75994;DHT22;64680;53.800;9.988;2023-08-06T00:30:58;15.30;76.20
75994;DHT22;64680;53.800;9.988;2023-08-06T00:33:24;15.20;78.20
75994;DHT22;64680;53.800;9.988;2023-08-06T00:35:50;15.20;79.60
75994;DHT22;64680;53.800;9.988;2023-08-06T00:38:16;15.20;81.90
75994;DHT22;64680;53.800;9.988;2023-08-06T00:40:42;15.20;84.00
75994;DHT22;64680;53.800;9.988;2023-08-06T00:43:07;15.10;85.10
75994;DHT22;64680;53.800;9.988;2023-08-06T00:45:35;15.10;85.10
75994;DHT22;64680;53.800;9.988;2023-08-06T00:48:02;15.10;87.50
75994;DHT22;64680;53.800;9.988;2023-08-06T00:50:29;15.10;88.50
75994;DHT22;64680;53.800;9.988;2023-08-06T00:52:54;15.10;89.80
75994;DHT22;64680;53.800;9.988;2023-08-06T00:55:20;15.10;89.70
75994;DHT22;64680;53.800;9.988;2023-08-06T00:57:46;15.10;91.10
75994;DHT22;64680;53.800;9.988;2023-08-06T01:00:12;15.00;92.60
75994;DHT22;64680;53.800;9.988;2023-08-06T01:02:38;15.00;91.50
75994;DHT22;64680;53.800;9.988;2023-08-06T01:05:04;15.00;91.80
75994;DHT22;64680;53.800;9.988;2023-08-06T01:07:33;14.90;93.20
75994;DHT22;64680;53.800;9.988;2023-08-06T01:10:31;14.90;94.50
75994;DHT22;64680;53.800;9.988;2023-08-06T01:15:42;14.80;97.50
75994;DHT22;64680;53.800;9.988;2023-08-06T01:18:10;14.80;97.70
75994;DHT22;64680;53.800;9.988;2023-08-06T01:20:35;14.80;97.90
75994;DHT22;64680;53.800;9.988;2023-08-06T01:23:01;14.70;98.50
75994;DHT22;64680;53.800;9.988;2023-08-06T01:30:59;14.70;99.90
75994;DHT22;64680;53.800;9.988;2023-08-06T01:33:27;14.70;99.90
75994;DHT22;64680;53.800;9.988;2023-08-06T01:35:54;14.70;99.90
75994;DHT22;64680;53.800;9.988;2023-08-06T01:38:21;14.80;99.90
75994;DHT22;64680;53.800;9.988;2023-08-06T01:40:46;14.70;99.90
75994;DHT22;64680;53.800;9.988;2023-08-06T01:43:12;14.60;99.90
75994;DHT22;64680;53.800;9.988;2023-08-06T01:45:37;14.70;99.90
75994;DHT22;64680;53.800;9.988;2023-08-06T01:48:03;14.60;99.90
75994;DHT22;64680;53.800;9.988;2023-08-06T01:50:29;14.60;99.90
75994;DHT22;64680;53.800;9.988;2023-08-06T01:52:54;14.60;99.90
75994;DHT22;64680;53.800;9.988;2023-08-06T01:55:20;14.60;99.90
75994;DHT22;64680;53.800;9.988;2023-08-06T01:57:45;14.60;99.90
75994;DHT22;64680;53.800;9.988;2023-08-06T02:00:11;14.50;99.90
75994;DHT22;64680;53.800;9.988;2023-08-06T02:02:37;14.60;99.90
75994;DHT22;64680;53.800;9.988;2023-08-06T02:05:03;14.60;99.90
75994;DHT22;64680;53.800;9.988;2023-08-06T02:07:29;14.60;99.90
75994;DHT22;64680;53.800;9.988;2023-08-06T02:09:54;14.60;99.90
75994;DHT22;64680;53.800;9.988;2023-08-06T02:12:20;14.60;99.90
75994;DHT22;64680;53.800;9.988;2023-08-06T02:14:45;14.60;99.90
75994;DHT22;64680;53.800;9.988;2023-08-06T02:17:11;14.60;99.90
75994;DHT22;64680;53.800;9.988;2023-08-06T02:19:36;14.60;99.90
75994;DHT22;64680;53.800;9.988;2023-08-06T02:22:02;14.50;99.90
75994;DHT22;64680;53.800;9.988;2023-08-06T02:24:28;14.50;99.90
75994;DHT22;64680;53.800;9.988;2023-08-06T02:26:53;14.50;99.90
75994;DHT22;64680;53.800;9.988;2023-08-06T02:29:21;14.50;99.90
75994;DHT22;64680;53.800;9.988;2023-08-06T02:31:46;14.50;99.90
75994;DHT22;64680;53.800;9.988;2023-08-06T02:34:12;14.50;99.90
75994;DHT22;64680;53.800;9.988;2023-08-06T02:36:37;14.50;99.90
75994;DHT22;64680;53.800;9.988;2023-08-06T02:39:03;14.40;99.90
75994;DHT22;64680;53.800;9.988;2023-08-06T02:41:28;14.30;99.90
75994;DHT22;64680;53.800;9.988;2023-08-06T02:43:54;14.30;99.90
75994;DHT22;64680;53.800;9.988;2023-08-06T02:46:19;14.20;99.90
75994;DHT22;64680;53.800;9.988;2023-08-06T02:48:45;14.30;99.90
75994;DHT22;64680;53.800;9.988;2023-08-06T02:51:10;14.20;99.90
75994;DHT22;64680;53.800;9.988;2023-08-06T02:53:36;14.10;99.90
75994;DHT22;64680;53.800;9.988;2023-08-06T02:56:02;14.10;99.70
75994;DHT22;64680;53.800;9.988;2023-08-06T02:58:28;14.10;99.90
75994;DHT22;64680;53.800;9.988;2023-08-06T03:01:04;14.10;99.90
75994;DHT22;64680;53.800;9.988;2023-08-06T03:03:31;14.00;99.90
75994;DHT22;64680;53.800;9.988;2023-08-06T03:05:56;14.00;99.90
75994;DHT22;64680;53.800;9.988;2023-08-06T03:08:22;14.00;99.90
75994;DHT22;64680;53.800;9.988;2023-08-06T03:10:49;14.00;99.90
75994;DHT22;64680;53.800;9.988;2023-08-06T03:13:15;13.90;99.90
75994;DHT22;64680;53.800;9.988;2023-08-06T03:15:41;14.00;99.90
75994;DHT22;64680;53.800;9.988;2023-08-06T03:18:07;13.90;99.90
75994;DHT22;64680;53.800;9.988;2023-08-06T03:20:32;13.90;99.90
75994;DHT22;64680;53.800;9.988;2023-08-06T03:22:58;13.90;99.90
75994;DHT22;64680;53.800;9.988;2023-08-06T03:25:23;13.90;98.80
75994;DHT22;64680;53.800;9.988;2023-08-06T03:27:49;13.90;98.10
75994;DHT22;64680;53.800;9.988;2023-08-06T03:30:14;13.90;98.40
75994;DHT22;64680;53.800;9.988;2023-08-06T03:32:40;13.90;98.20
75994;DHT22;64680;53.800;9.988;2023-08-06T03:35:06;13.80;98.00
75994;DHT22;64680;53.800;9.988;2023-08-06T03:37:32;13.90;98.70
75994;DHT22;64680;53.800;9.988;2023-08-06T03:39:57;13.90;98.60
75994;DHT22;64680;53.800;9.988;2023-08-06T03:42:23;13.90;97.30
75994;DHT22;64680;53.800;9.988;2023-08-06T03:44:48;13.90;96.90
75994;DHT22;64680;53.800;9.988;2023-08-06T03:47:14;13.90;97.40
75994;DHT22;64680;53.800;9.988;2023-08-06T03:49:39;13.80;97.50
75994;DHT22;64680;53.800;9.988;2023-08-06T03:52:05;13.80;97.60
75994;DHT22;64680;53.800;9.988;2023-08-06T03:54:31;13.80;97.70
75994;DHT22;64680;53.800;9.988;2023-08-06T03:56:57;13.80;98.50
75994;DHT22;64680;53.800;9.988;2023-08-06T03:59:22;13.80;98.30
75994;DHT22;64680;53.800;9.988;2023-08-06T04:01:48;13.80;99.50
75994;DHT22;64680;53.800;9.988;2023-08-06T04:04:14;13.80;99.60
75994;DHT22;64680;53.800;9.988;2023-08-06T04:06:39;13.80;99.70
75994;DHT22;64680;53.800;9.988;2023-08-06T04:09:05;13.80;99.70
75994;DHT22;64680;53.800;9.988;2023-08-06T04:11:30;13.80;99.90
75994;DHT22;64680;53.800;9.988;2023-08-06T04:13:56;13.80;99.90
75994;DHT22;64680;53.800;9.988;2023-08-06T04:16:21;13.80;99.90
75994;DHT22;64680;53.800;9.988;2023-08-06T04:18:47;13.80;99.90
75994;DHT22;64680;53.800;9.988;2023-08-06T04:21:13;13.80;99.90
75994;DHT22;64680;53.800;9.988;2023-08-06T04:23:38;13.80;99.90
75994;DHT22;64680;53.800;9.988;2023-08-06T04:26:04;13.80;99.90
75994;DHT22;64680;53.800;9.988;2023-08-06T04:28:30;13.80;99.90
75994;DHT22;64680;53.800;9.988;2023-08-06T04:30:55;13.80;99.90
75994;DHT22;64680;53.800;9.988;2023-08-06T04:33:21;13.80;99.90
75994;DHT22;64680;53.800;9.988;2023-08-06T04:35:47;13.80;99.90
75994;DHT22;64680;53.800;9.988;2023-08-06T04:38:12;13.80;99.90
75994;DHT22;64680;53.800;9.988;2023-08-06T04:40:38;13.80;99.90
75994;DHT22;64680;53.800;9.988;2023-08-06T04:43:03;13.80;99.90
75994;DHT22;64680;53.800;9.988;2023-08-06T04:45:29;13.80;99.90
75994;DHT22;64680;53.800;9.988;2023-08-06T04:47:54;13.80;99.90
75994;DHT22;64680;53.800;9.988;2023-08-06T04:50:20;13.80;99.90
75994;DHT22;64680;53.800;9.988;2023-08-06T04:52:46;13.70;99.90
75994;DHT22;64680;53.800;9.988;2023-08-06T04:55:11;13.70;99.90
75994;DHT22;64680;53.800;9.988;2023-08-06T04:57:37;13.80;99.90
75994;DHT22;64680;53.800;9.988;2023-08-06T05:00:03;13.80;99.90
75994;DHT22;64680;53.800;9.988;2023-08-06T05:02:30;13.70;99.90
75994;DHT22;64680;53.800;9.988;2023-08-06T05:04:58;13.80;99.90
75994;DHT22;64680;53.800;9.988;2023-08-06T05:07:23;13.80;99.90
75994;DHT22;64680;53.800;9.988;2023-08-06T05:09:49;13.80;99.90
75994;DHT22;64680;53.800;9.988;2023-08-06T05:12:14;13.80;99.90
75994;DHT22;64680;53.800;9.988;2023-08-06T05:14:40;13.80;99.90
75994;DHT22;64680;53.800;9.988;2023-08-06T05:17:05;13.80;99.90
75994;DHT22;64680;53.800;9.988;2023-08-06T05:19:31;13.80;99.90
75994;DHT22;64680;53.800;9.988;2023-08-06T05:21:57;13.80;99.90
75994;DHT22;64680;53.800;9.988;2023-08-06T05:24:22;13.80;99.90
75994;DHT22;64680;53.800;9.988;2023-08-06T05:26:48;13.90;99.90
75994;DHT22;64680;53.800;9.988;2023-08-06T05:29:14;13.90;99.90
75994;DHT22;64680;53.800;9.988;2023-08-06T05:31:39;13.90;99.90
75994;DHT22;64680;53.800;9.988;2023-08-06T05:34:05;14.00;99.90
75994;DHT22;64680;53.800;9.988;2023-08-06T05:36:30;14.00;99.90
75994;DHT22;64680;53.800;9.988;2023-08-06T05:38:56;14.00;99.90
75994;DHT22;64680;53.800;9.988;2023-08-06T05:41:21;14.10;99.90
75994;DHT22;64680;53.800;9.988;2023-08-06T05:43:47;14.10;99.90
75994;DHT22;64680;53.800;9.988;2023-08-06T05:46:13;14.10;99.90
75994;DHT22;64680;53.800;9.988;2023-08-06T05:48:38;14.20;99.90
75994;DHT22;64680;53.800;9.988;2023-08-06T05:51:04;14.20;99.90
75994;DHT22;64680;53.800;9.988;2023-08-06T05:53:29;14.20;99.90
75994;DHT22;64680;53.800;9.988;2023-08-06T05:55:56;14.20;99.90
75994;DHT22;64680;53.800;9.988;2023-08-06T05:58:21;14.30;99.90
75994;DHT22;64680;53.800;9.988;2023-08-06T06:00:47;14.30;99.90
75994;DHT22;64680;53.800;9.988;2023-08-06T06:03:12;14.40;99.90
75994;DHT22;64680;53.800;9.988;2023-08-06T06:05:38;14.40;99.90
75994;DHT22;64680;53.800;9.988;2023-08-06T06:08:04;14.40;99.90
75994;DHT22;64680;53.800;9.988;2023-08-06T06:10:29;14.40;99.90
75994;DHT22;64680;53.800;9.988;2023-08-06T06:12:55;14.50;99.90
75994;DHT22;64680;53.800;9.988;2023-08-06T06:15:21;14.50;99.90
75994;DHT22;64680;53.800;9.988;2023-08-06T06:17:46;14.50;99.90
75994;DHT22;64680;53.800;9.988;2023-08-06T06:20:12;14.50;99.90
75994;DHT22;64680;53.800;9.988;2023-08-06T06:22:38;14.50;99.90
75994;DHT22;64680;53.800;9.988;2023-08-06T06:25:03;14.60;99.90
75994;DHT22;64680;53.800;9.988;2023-08-06T06:27:29;14.50;99.90
75994;DHT22;64680;53.800;9.988;2023-08-06T06:29:55;14.60;99.90
75994;DHT22;64680;53.800;9.988;2023-08-06T06:32:21;14.60;99.90
75994;DHT22;64680;53.800;9.988;2023-08-06T06:34:47;14.60;99.90
75994;DHT22;64680;53.800;9.988;2023-08-06T06:37:12;14.60;99.90
75994;DHT22;64680;53.800;9.988;2023-08-06T06:39:38;14.60;99.90
75994;DHT22;64680;53.800;9.988;2023-08-06T06:42:04;14.60;99.90
75994;DHT22;64680;53.800;9.988;2023-08-06T06:44:30;14.60;99.90
75994;DHT22;64680;53.800;9.988;2023-08-06T06:46:56;14.60;99.90
75994;DHT22;64680;53.800;9.988;2023-08-06T06:49:21;14.60;99.90
75994;DHT22;64680;53.800;9.988;2023-08-06T06:51:47;14.60;99.90
75994;DHT22;64680;53.800;9.988;2023-08-06T06:54:12;14.50;99.90
75994;DHT22;64680;53.800;9.988;2023-08-06T06:56:38;14.50;99.90
75994;DHT22;64680;53.800;9.988;2023-08-06T06:59:04;14.60;99.90
75994;DHT22;64680;53.800;9.988;2023-08-06T07:01:29;14.60;99.90
75994;DHT22;64680;53.800;9.988;2023-08-06T07:03:55;14.70;99.90
75994;DHT22;64680;53.800;9.988;2023-08-06T07:06:21;14.70;99.90
75994;DHT22;64680;53.800;9.988;2023-08-06T07:08:46;14.70;99.90
75994;DHT22;64680;53.800;9.988;2023-08-06T07:11:12;14.70;99.90
75994;DHT22;64680;53.800;9.988;2023-08-06T07:13:37;14.70;99.90
75994;DHT22;64680;53.800;9.988;2023-08-06T07:16:03;14.70;99.90
75994;DHT22;64680;53.800;9.988;2023-08-06T07:18:29;14.60;99.90
75994;DHT22;64680;53.800;9.988;2023-08-06T07:20:55;14.60;99.90
75994;DHT22;64680;53.800;9.988;2023-08-06T07:23:22;14.60;99.90
75994;DHT22;64680;53.800;9.988;2023-08-06T07:25:48;14.60;99.90
75994;DHT22;64680;53.800;9.988;2023-08-06T07:28:14;14.60;99.90
75994;DHT22;64680;53.800;9.988;2023-08-06T07:30:41;14.60;99.90
75994;DHT22;64680;53.800;9.988;2023-08-06T07:33:07;14.70;99.90
75994;DHT22;64680;53.800;9.988;2023-08-06T07:35:33;14.70;99.90
75994;DHT22;64680;53.800;9.988;2023-08-06T07:37:58;14.70;99.90
75994;DHT22;64680;53.800;9.988;2023-08-06T07:40:24;14.80;99.90
75994;DHT22;64680;53.800;9.988;2023-08-06T07:42:50;14.80;99.90
75994;DHT22;64680;53.800;9.988;2023-08-06T07:45:15;14.80;99.90
75994;DHT22;64680;53.800;9.988;2023-08-06T07:47:41;14.80;99.90
75994;DHT22;64680;53.800;9.988;2023-08-06T07:50:09;14.90;99.90
75994;DHT22;64680;53.800;9.988;2023-08-06T07:52:34;15.00;99.90
75994;DHT22;64680;53.800;9.988;2023-08-06T07:55:01;15.00;99.90
75994;DHT22;64680;53.800;9.988;2023-08-06T07:57:33;15.00;99.90
75994;DHT22;64680;53.800;9.988;2023-08-06T08:00:00;15.10;99.90
75994;DHT22;64680;53.800;9.988;2023-08-06T08:02:25;15.10;99.90
75994;DHT22;64680;53.800;9.988;2023-08-06T08:04:51;15.10;99.90
75994;DHT22;64680;53.800;9.988;2023-08-06T08:07:17;15.20;99.90
75994;DHT22;64680;53.800;9.988;2023-08-06T08:09:43;15.30;99.90
75994;DHT22;64680;53.800;9.988;2023-08-06T08:12:08;15.30;99.90
75994;DHT22;64680;53.800;9.988;2023-08-06T08:14:34;15.40;99.90
75994;DHT22;64680;53.800;9.988;2023-08-06T08:17:04;15.50;99.90
75994;DHT22;64680;53.800;9.988;2023-08-06T08:19:31;15.50;99.90
75994;DHT22;64680;53.800;9.988;2023-08-06T08:21:57;15.50;99.90
75994;DHT22;64680;53.800;9.988;2023-08-06T08:24:22;15.60;99.90
75994;DHT22;64680;53.800;9.988;2023-08-06T08:26:51;15.60;99.90
75994;DHT22;64680;53.800;9.988;2023-08-06T08:29:17;15.60;99.90
75994;DHT22;64680;53.800;9.988;2023-08-06T08:31:43;15.60;99.90
75994;DHT22;64680;53.800;9.988;2023-08-06T08:34:09;15.70;99.90
75994;DHT22;64680;53.800;9.988;2023-08-06T08:36:35;15.70;99.90
75994;DHT22;64680;53.800;9.988;2023-08-06T08:39:01;15.80;99.90
75994;DHT22;64680;53.800;9.988;2023-08-06T08:41:33;15.90;99.90
75994;DHT22;64680;53.800;9.988;2023-08-06T08:44:00;16.00;99.90
75994;DHT22;64680;53.800;9.988;2023-08-06T08:46:26;16.10;99.90
75994;DHT22;64680;53.800;9.988;2023-08-06T08:48:53;16.20;99.90
75994;DHT22;64680;53.800;9.988;2023-08-06T08:51:19;16.20;99.90
75994;DHT22;64680;53.800;9.988;2023-08-06T08:53:47;16.30;99.90
75994;DHT22;64680;53.800;9.988;2023-08-06T08:56:15;16.40;99.90
75994;DHT22;64680;53.800;9.988;2023-08-06T08:58:41;16.50;99.90
75994;DHT22;64680;53.800;9.988;2023-08-06T09:01:07;16.60;99.90
75994;DHT22;64680;53.800;9.988;2023-08-06T09:03:34;16.60;99.70
75994;DHT22;64680;53.800;9.988;2023-08-06T09:06:01;16.70;93.30
75994;DHT22;64680;53.800;9.988;2023-08-06T09:08:29;16.60;96.60
75994;DHT22;64680;53.800;9.988;2023-08-06T09:10:56;16.60;99.90
75994;DHT22;64680;53.800;9.988;2023-08-06T09:13:22;16.60;97.30
75994;DHT22;64680;53.800;9.988;2023-08-06T09:15:49;16.60;89.20
75994;DHT22;64680;53.800;9.988;2023-08-06T09:18:25;16.50;91.00
75994;DHT22;64680;53.800;9.988;2023-08-06T09:20:52;16.50;93.90
75994;DHT22;64680;53.800;9.988;2023-08-06T09:23:17;16.50;93.80
75994;DHT22;64680;53.800;9.988;2023-08-06T09:25:43;16.50;94.70
75994;DHT22;64680;53.800;9.988;2023-08-06T09:28:10;16.50;90.80
75994;DHT22;64680;53.800;9.988;2023-08-06T09:30:36;16.50;96.40
75994;DHT22;64680;53.800;9.988;2023-08-06T09:33:03;16.60;99.00
75994;DHT22;64680;53.800;9.988;2023-08-06T09:35:30;16.60;98.30
75994;DHT22;64680;53.800;9.988;2023-08-06T09:38:06;16.60;95.70
75994;DHT22;64680;53.800;9.988;2023-08-06T09:40:36;16.50;91.60
75994;DHT22;64680;53.800;9.988;2023-08-06T09:43:02;16.50;94.50
75994;DHT22;64680;53.800;9.988;2023-08-06T09:45:31;16.50;96.80
75994;DHT22;64680;53.800;9.988;2023-08-06T09:47:58;16.50;96.50
75994;DHT22;64680;53.800;9.988;2023-08-06T09:50:29;16.50;99.20
75994;DHT22;64680;53.800;9.988;2023-08-06T09:52:56;16.40;99.90
75994;DHT22;64680;53.800;9.988;2023-08-06T09:55:23;16.40;99.90
75994;DHT22;64680;53.800;9.988;2023-08-06T09:57:50;16.40;99.90
75994;DHT22;64680;53.800;9.988;2023-08-06T10:00:17;16.40;99.90
75994;DHT22;64680;53.800;9.988;2023-08-06T10:02:43;16.50;99.90
75994;DHT22;64680;53.800;9.988;2023-08-06T10:05:10;16.50;99.90
75994;DHT22;64680;53.800;9.988;2023-08-06T10:07:36;16.50;99.90
75994;DHT22;64680;53.800;9.988;2023-08-06T10:10:05;16.50;99.90
75994;DHT22;64680;53.800;9.988;2023-08-06T10:12:42;16.50;99.90
75994;DHT22;64680;53.800;9.988;2023-08-06T10:15:12;16.50;99.90
75994;DHT22;64680;53.800;9.988;2023-08-06T10:17:39;16.50;99.90
75994;DHT22;64680;53.800;9.988;2023-08-06T10:20:07;16.60;99.90
75994;DHT22;64680;53.800;9.988;2023-08-06T10:22:33;16.50;99.90
75994;DHT22;64680;53.800;9.988;2023-08-06T10:25:03;16.50;99.90
75994;DHT22;64680;53.800;9.988;2023-08-06T10:27:39;16.40;99.90
75994;DHT22;64680;53.800;9.988;2023-08-06T10:30:40;16.40;99.90
75994;DHT22;64680;53.800;9.988;2023-08-06T10:33:06;16.40;99.90
75994;DHT22;64680;53.800;9.988;2023-08-06T10:38:20;16.40;99.90
75994;DHT22;64680;53.800;9.988;2023-08-06T10:43:37;16.40;99.90
75994;DHT22;64680;53.800;9.988;2023-08-06T10:46:09;16.40;99.90
75994;DHT22;64680;53.800;9.988;2023-08-06T10:48:37;16.40;99.90
75994;DHT22;64680;53.800;9.988;2023-08-06T10:51:03;16.40;99.90
75994;DHT22;64680;53.800;9.988;2023-08-06T10:53:30;16.40;99.70
75994;DHT22;64680;53.800;9.988;2023-08-06T10:55:56;16.50;99.90
75994;DHT22;64680;53.800;9.988;2023-08-06T10:58:21;16.50;99.90
75994;DHT22;64680;53.800;9.988;2023-08-06T11:00:47;16.50;99.90
75994;DHT22;64680;53.800;9.988;2023-08-06T11:03:12;16.60;99.90
75994;DHT22;64680;53.800;9.988;2023-08-06T11:05:39;16.70;99.90
75994;DHT22;64680;53.800;9.988;2023-08-06T11:08:04;16.70;97.10
75994;DHT22;64680;53.800;9.988;2023-08-06T11:10:33;16.70;98.60
75994;DHT22;64680;53.800;9.988;2023-08-06T11:13:03;16.70;99.40
75994;DHT22;64680;53.800;9.988;2023-08-06T11:15:30;16.70;99.90
75994;DHT22;64680;53.800;9.988;2023-08-06T11:17:55;16.80;99.90
75994;DHT22;64680;53.800;9.988;2023-08-06T11:20:21;16.80;99.90
75994;DHT22;64680;53.800;9.988;2023-08-06T11:22:50;16.90;95.50
75994;DHT22;64680;53.800;9.988;2023-08-06T11:25:15;16.90;92.40
75994;DHT22;64680;53.800;9.988;2023-08-06T11:27:41;16.90;96.50
75994;DHT22;64680;53.800;9.988;2023-08-06T11:30:07;16.90;97.80
75994;DHT22;64680;53.800;9.988;2023-08-06T11:32:33;17.00;98.60
75994;DHT22;64680;53.800;9.988;2023-08-06T11:35:09;17.00;86.40
75994;DHT22;64680;53.800;9.988;2023-08-06T11:37:36;17.00;88.80
75994;DHT22;64680;53.800;9.988;2023-08-06T11:40:10;17.00;89.50
75994;DHT22;64680;53.800;9.988;2023-08-06T11:42:36;17.10;94.60
75994;DHT22;64680;53.800;9.988;2023-08-06T11:45:03;17.10;89.30
75994;DHT22;64680;53.800;9.988;2023-08-06T11:47:29;17.20;94.60
75994;DHT22;64680;53.800;9.988;2023-08-06T11:49:55;17.10;96.70
75994;DHT22;64680;53.800;9.988;2023-08-06T11:52:22;17.10;97.30
75994;DHT22;64680;53.800;9.988;2023-08-06T11:55:04;17.10;97.30
75994;DHT22;64680;53.800;9.988;2023-08-06T11:57:33;17.20;98.70
75994;DHT22;64680;53.800;9.988;2023-08-06T12:00:23;17.20;93.60
75994;DHT22;64680;53.800;9.988;2023-08-06T12:02:49;17.20;93.20
75994;DHT22;64680;53.800;9.988;2023-08-06T12:05:19;17.20;94.90
75994;DHT22;64680;53.800;9.988;2023-08-06T12:07:54;17.20;98.30
75994;DHT22;64680;53.800;9.988;2023-08-06T12:10:21;17.30;93.00
75994;DHT22;64680;53.800;9.988;2023-08-06T12:12:47;17.40;94.80
75994;DHT22;64680;53.800;9.988;2023-08-06T12:15:14;17.40;96.20
75994;DHT22;64680;53.800;9.988;2023-08-06T12:17:40;17.50;95.70
75994;DHT22;64680;53.800;9.988;2023-08-06T12:20:07;17.40;95.00
75994;DHT22;64680;53.800;9.988;2023-08-06T12:22:33;17.40;93.80
75994;DHT22;64680;53.800;9.988;2023-08-06T12:25:10;17.50;91.20
75994;DHT22;64680;53.800;9.988;2023-08-06T12:27:44;17.50;89.40
75994;DHT22;64680;53.800;9.988;2023-08-06T12:30:12;17.50;88.50
75994;DHT22;64680;53.800;9.988;2023-08-06T12:32:38;17.60;86.90
75994;DHT22;64680;53.800;9.988;2023-08-06T12:35:04;17.60;87.60
75994;DHT22;64680;53.800;9.988;2023-08-06T12:37:30;17.60;89.40
75994;DHT22;64680;53.800;9.988;2023-08-06T12:39:56;17.70;88.20
75994;DHT22;64680;53.800;9.988;2023-08-06T12:42:21;17.60;86.20
75994;DHT22;64680;53.800;9.988;2023-08-06T12:44:50;17.60;85.70
75994;DHT22;64680;53.800;9.988;2023-08-06T12:47:16;17.60;83.40
75994;DHT22;64680;53.800;9.988;2023-08-06T12:49:42;17.60;79.00
75994;DHT22;64680;53.800;9.988;2023-08-06T12:52:08;17.50;79.70
75994;DHT22;64680;53.800;9.988;2023-08-06T12:54:34;17.50;79.90
75994;DHT22;64680;53.800;9.988;2023-08-06T12:57:02;17.50;82.60
75994;DHT22;64680;53.800;9.988;2023-08-06T12:59:28;17.50;82.00
75994;DHT22;64680;53.800;9.988;2023-08-06T13:01:54;17.50;84.50
75994;DHT22;64680;53.800;9.988;2023-08-06T13:04:19;17.50;80.60
75994;DHT22;64680;53.800;9.988;2023-08-06T13:06:45;17.50;83.60
75994;DHT22;64680;53.800;9.988;2023-08-06T13:09:10;17.40;83.60
75994;DHT22;64680;53.800;9.988;2023-08-06T13:11:36;17.40;86.90
75994;DHT22;64680;53.800;9.988;2023-08-06T13:14:08;17.40;87.20
75994;DHT22;64680;53.800;9.988;2023-08-06T13:16:34;17.30;90.00
75994;DHT22;64680;53.800;9.988;2023-08-06T13:19:00;17.30;89.50
75994;DHT22;64680;53.800;9.988;2023-08-06T13:21:58;17.10;91.10
75994;DHT22;64680;53.800;9.988;2023-08-06T13:24:24;16.90;93.00
75994;DHT22;64680;53.800;9.988;2023-08-06T13:26:49;16.90;91.90
75994;DHT22;64680;53.800;9.988;2023-08-06T13:29:15;16.80;96.30
75994;DHT22;64680;53.800;9.988;2023-08-06T13:31:40;16.80;95.70
75994;DHT22;64680;53.800;9.988;2023-08-06T13:34:06;16.80;96.40
75994;DHT22;64680;53.800;9.988;2023-08-06T13:36:32;16.60;99.90
75994;DHT22;64680;53.800;9.988;2023-08-06T13:38:57;16.70;99.90
75994;DHT22;64680;53.800;9.988;2023-08-06T13:41:23;16.70;98.20
75994;DHT22;64680;53.800;9.988;2023-08-06T13:43:49;16.60;97.70
75994;DHT22;64680;53.800;9.988;2023-08-06T13:46:15;16.50;99.50
75994;DHT22;64680;53.800;9.988;2023-08-06T13:48:43;16.40;99.80
75994;DHT22;64680;53.800;9.988;2023-08-06T13:51:10;16.30;99.90
75994;DHT22;64680;53.800;9.988;2023-08-06T13:53:37;16.40;99.90
75994;DHT22;64680;53.800;9.988;2023-08-06T13:56:03;16.40;99.90
75994;DHT22;64680;53.800;9.988;2023-08-06T13:58:28;16.40;99.90
75994;DHT22;64680;53.800;9.988;2023-08-06T14:00:54;16.40;99.20
75994;DHT22;64680;53.800;9.988;2023-08-06T14:03:20;16.30;97.80
75994;DHT22;64680;53.800;9.988;2023-08-06T14:05:46;16.30;95.00
75994;DHT22;64680;53.800;9.988;2023-08-06T14:08:11;16.30;92.90
75994;DHT22;64680;53.800;9.988;2023-08-06T14:10:37;16.20;93.50
75994;DHT22;64680;53.800;9.988;2023-08-06T14:13:03;16.20;95.60
75994;DHT22;64680;53.800;9.988;2023-08-06T14:15:28;16.20;95.70
75994;DHT22;64680;53.800;9.988;2023-08-06T14:17:54;16.20;95.80
75994;DHT22;64680;53.800;9.988;2023-08-06T14:20:20;16.20;93.80
75994;DHT22;64680;53.800;9.988;2023-08-06T14:22:45;16.10;97.90
75994;DHT22;64680;53.800;9.988;2023-08-06T14:25:11;16.00;99.90
75994;DHT22;64680;53.800;9.988;2023-08-06T14:27:36;16.00;99.90
75994;DHT22;64680;53.800;9.988;2023-08-06T14:30:05;16.00;99.90
75994;DHT22;64680;53.800;9.988;2023-08-06T14:32:31;15.90;99.90
75994;DHT22;64680;53.800;9.988;2023-08-06T14:34:56;15.90;99.90
75994;DHT22;64680;53.800;9.988;2023-08-06T14:37:24;15.90;99.90
75994;DHT22;64680;53.800;9.988;2023-08-06T14:39:50;16.00;99.90
75994;DHT22;64680;53.800;9.988;2023-08-06T14:42:15;16.20;99.90
75994;DHT22;64680;53.800;9.988;2023-08-06T14:44:41;16.30;99.90
75994;DHT22;64680;53.800;9.988;2023-08-06T14:47:07;16.40;99.90
75994;DHT22;64680;53.800;9.988;2023-08-06T14:49:32;16.40;99.90
75994;DHT22;64680;53.800;9.988;2023-08-06T14:51:58;16.40;99.90
75994;DHT22;64680;53.800;9.988;2023-08-06T14:54:26;16.40;99.90
75994;DHT22;64680;53.800;9.988;2023-08-06T14:56:52;16.30;99.90
75994;DHT22;64680;53.800;9.988;2023-08-06T14:59:18;16.20;99.90
75994;DHT22;64680;53.800;9.988;2023-08-06T15:01:43;16.20;99.90
75994;DHT22;64680;53.800;9.988;2023-08-06T15:04:09;16.30;99.90
75994;DHT22;64680;53.800;9.988;2023-08-06T15:06:35;16.40;99.90
75994;DHT22;64680;53.800;9.988;2023-08-06T15:09:00;16.40;99.90
75994;DHT22;64680;53.800;9.988;2023-08-06T15:11:26;16.30;99.90
75994;DHT22;64680;53.800;9.988;2023-08-06T15:13:52;16.30;99.90
75994;DHT22;64680;53.800;9.988;2023-08-06T15:16:18;16.20;99.90
75994;DHT22;64680;53.800;9.988;2023-08-06T15:18:43;16.20;99.90
75994;DHT22;64680;53.800;9.988;2023-08-06T15:21:09;16.30;99.90
75994;DHT22;64680;53.800;9.988;2023-08-06T15:23:35;16.40;98.60
75994;DHT22;64680;53.800;9.988;2023-08-06T15:26:01;16.30;99.80
75994;DHT22;64680;53.800;9.988;2023-08-06T15:28:27;16.40;99.90
75994;DHT22;64680;53.800;9.988;2023-08-06T15:30:54;16.30;99.70
75994;DHT22;64680;53.800;9.988;2023-08-06T15:33:20;16.20;99.90
75994;DHT22;64680;53.800;9.988;2023-08-06T15:35:46;16.10;99.90
75994;DHT22;64680;53.800;9.988;2023-08-06T15:38:12;16.00;99.90
75994;DHT22;64680;53.800;9.988;2023-08-06T15:40:38;16.10;99.90